Time;durP1;ratioP1;P1;durP2;ratioP2;P2;SDS_P1;SDS_P2;PMS_P1;PMS_P2;Temp;Humidity;BMP_temperature;BMP_pressure;BME280_temperature;BME280_humidity;BME280_pressure;Samples;Min_cycle;Max_cycle;Signal;HPM_P1;HPM_P2
2022/03/12 00:00:30;;;;;;;18.38;8.48;;;8.20;80.20;;;;;;4991362;28;20377;-72
2022/03/12 00:02:57;;;;;;;19.20;7.85;;;8.10;80.30;;;;;;4990455;28;20056;-72
2022/03/12 00:05:33;;;;;;;17.27;8.00;;;8.10;80.00;;;;;;4986943;28;20445;-73
2022/03/12 00:08:03;;;;;;;19.80;8.25;;;8.10;79.90;;;;;;4985461;28;20045;-72
2022/03/12 00:10:32;;;;;;;13.68;6.88;;;8.10;79.50;;;;;;4980588;28;20500;-72
2022/03/12 00:12:58;;;;;;;14.27;7.25;;;8.10;79.30;;;;;;4981649;28;20042;-72
2022/03/12 00:15:24;;;;;;;13.88;7.25;;;8.20;78.10;;;;;;4983259;28;20439;-72
2022/03/12 00:17:50;;;;;;;17.63;9.05;;;8.20;79.50;;;;;;4990924;28;20076;-70
2022/03/12 00:20:18;;;;;;;12.50;6.82;;;8.20;79.20;;;;;;5002013;28;20126;-74
2022/03/12 00:22:51;;;;;;;15.63;7.13;;;8.10;80.10;;;;;;5008132;28;20075;-73
2022/03/12 00:25:22;;;;;;;13.95;7.55;;;8.00;80.80;;;;;;4990067;28;20045;-73
2022/03/12 00:27:48;;;;;;;12.52;6.50;;;8.00;80.10;;;;;;5005769;28;20038;-70
2022/03/12 00:30:24;;;;;;;14.45;7.22;;;8.00;80.30;;;;;;4994638;28;20038;-71
2022/03/12 00:32:51;;;;;;;12.50;6.35;;;8.00;79.40;;;;;;4990628;28;20443;-71
2022/03/12 00:35:18;;;;;;;12.40;6.43;;;7.90;79.30;;;;;;4986331;28;20444;-71
2022/03/12 00:37:44;;;;;;;17.05;7.68;;;8.00;79.10;;;;;;4996866;28;20916;-71
2022/03/12 00:40:11;;;;;;;10.57;6.47;;;8.00;78.80;;;;;;5011639;28;20042;-72
2022/03/12 00:42:37;;;;;;;12.00;7.13;;;8.00;79.00;;;;;;4993799;28;20034;-72
2022/03/12 00:45:03;;;;;;;17.35;6.97;;;8.00;79.40;;;;;;4998083;28;20457;-72
2022/03/12 00:47:30;;;;;;;12.40;7.18;;;8.00;78.50;;;;;;5006995;28;20492;-71
2022/03/12 00:49:56;;;;;;;13.85;7.20;;;8.00;78.80;;;;;;4998841;28;20100;-71
2022/03/12 00:52:22;;;;;;;12.82;7.15;;;8.00;78.70;;;;;;4990249;28;20049;-71
2022/03/12 00:54:47;;;;;;;11.30;5.90;;;7.90;79.50;;;;;;5007335;28;20053;-72
2022/03/12 00:57:13;;;;;;;11.40;6.68;;;7.90;79.50;;;;;;4989716;28;20127;-72
2022/03/12 00:59:40;;;;;;;14.13;7.20;;;7.90;79.40;;;;;;5007001;28;20061;-72
2022/03/12 01:02:08;;;;;;;9.82;6.43;;;7.80;79.90;;;;;;5005836;28;20120;-71
2022/03/12 01:04:34;;;;;;;9.27;6.20;;;7.80;80.30;;;;;;4989902;28;20485;-71
2022/03/12 01:07:00;;;;;;;15.18;6.82;;;7.80;80.10;;;;;;4994434;28;20045;-71
2022/03/12 01:09:26;;;;;;;15.75;7.88;;;7.70;80.90;;;;;;4989962;28;20046;-71
2022/03/12 01:11:51;;;;;;;11.23;6.13;;;7.70;80.90;;;;;;4989886;28;20046;-71
2022/03/12 01:14:17;;;;;;;11.55;6.15;;;7.70;81.20;;;;;;4982423;28;20058;-71
2022/03/12 01:16:43;;;;;;;10.35;5.85;;;7.60;81.30;;;;;;4990435;28;20049;-71
2022/03/12 01:19:09;;;;;;;11.43;5.80;;;7.60;81.30;;;;;;5006655;28;20060;-71
2022/03/12 01:21:34;;;;;;;15.32;7.00;;;7.50;81.50;;;;;;4994373;28;20048;-71
2022/03/12 01:24:00;;;;;;;14.02;6.60;;;7.50;81.90;;;;;;4990880;28;20046;-71
2022/03/12 01:26:26;;;;;;;9.88;6.22;;;7.50;82.50;;;;;;4979892;28;20103;-71
2022/03/12 01:28:52;;;;;;;13.70;7.07;;;7.40;82.80;;;;;;4993696;28;20053;-71
2022/03/12 01:31:18;;;;;;;12.48;6.53;;;7.40;82.80;;;;;;4999293;28;20076;-71
2022/03/12 01:33:45;;;;;;;15.52;6.57;;;7.30;82.70;;;;;;5006455;28;20516;-71
2022/03/12 01:36:11;;;;;;;10.35;6.35;;;7.30;83.20;;;;;;4991760;28;20034;-71
2022/03/12 01:38:51;;;;;;;11.02;6.30;;;7.30;83.10;;;;;;5002807;28;20852;-71
2022/03/12 01:41:24;;;;;;;10.77;6.47;;;7.30;83.40;;;;;;4992881;28;20050;-71
2022/03/12 01:43:53;;;;;;;12.65;5.85;;;7.30;83.70;;;;;;4978577;28;20050;-71
2022/03/12 01:46:29;;;;;;;11.43;5.70;;;7.20;83.20;;;;;;4993169;28;20041;-71
2022/03/12 01:48:59;;;;;;;12.88;6.38;;;7.30;82.70;;;;;;4991134;28;20039;-71
2022/03/12 01:51:26;;;;;;;9.60;6.50;;;7.30;82.10;;;;;;4979656;28;20382;-72
2022/03/12 01:53:53;;;;;;;8.75;5.57;;;7.30;82.40;;;;;;4987765;28;20489;-71
2022/03/12 01:56:20;;;;;;;10.80;6.40;;;7.30;82.30;;;;;;4985473;28;20048;-71
2022/03/12 01:58:49;;;;;;;9.73;5.82;;;7.30;81.90;;;;;;5008601;28;20432;-71
2022/03/12 02:01:18;;;;;;;8.32;5.90;;;7.30;82.40;;;;;;5000731;28;20053;-72
2022/03/12 02:03:44;;;;;;;10.25;6.65;;;7.30;82.80;;;;;;4987812;28;20512;-72
2022/03/12 02:06:21;;;;;;;11.75;6.05;;;7.30;82.50;;;;;;4985025;28;20099;-71
2022/03/12 02:08:58;;;;;;;14.50;5.93;;;7.30;82.10;;;;;;5002834;28;20083;-72
2022/03/12 02:11:28;;;;;;;9.05;5.38;;;7.30;82.60;;;;;;5007656;28;20068;-71
2022/03/12 02:13:59;;;;;;;9.45;6.35;;;7.20;82.50;;;;;;4981799;28;20103;-72
2022/03/12 02:16:26;;;;;;;10.38;5.30;;;7.30;81.80;;;;;;4986040;28;20042;-72
2022/03/12 02:18:51;;;;;;;9.38;5.85;;;7.30;82.30;;;;;;5007392;28;20050;-72
2022/03/12 02:21:30;;;;;;;10.43;5.72;;;7.30;82.00;;;;;;5005282;28;20042;-72
2022/03/12 02:23:56;;;;;;;14.45;6.40;;;7.30;82.20;;;;;;5003018;28;22265;-72
2022/03/12 02:26:22;;;;;;;7.80;5.35;;;7.30;82.10;;;;;;4994504;28;20052;-72
2022/03/12 02:28:47;;;;;;;11.55;6.32;;;7.30;82.10;;;;;;4993985;28;20048;-72
2022/03/12 02:31:14;;;;;;;9.57;5.60;;;7.30;81.40;;;;;;5000389;28;20042;-72
2022/03/12 02:33:41;;;;;;;12.88;6.13;;;7.30;81.80;;;;;;5006485;28;20041;-72
2022/03/12 02:36:12;;;;;;;9.13;5.78;;;7.30;82.70;;;;;;4983627;28;20038;-72
2022/03/12 02:38:38;;;;;;;10.70;6.72;;;7.30;81.50;;;;;;5000582;28;20140;-73
2022/03/12 02:41:10;;;;;;;11.20;6.43;;;7.30;82.50;;;;;;4980950;28;20401;-72
2022/03/12 02:43:37;;;;;;;12.67;6.07;;;7.30;82.10;;;;;;5003822;28;20041;-72
2022/03/12 02:46:03;;;;;;;8.82;5.32;;;7.30;82.00;;;;;;4986506;28;20049;-71
2022/03/12 02:48:29;;;;;;;12.18;6.22;;;7.30;81.80;;;;;;4988458;28;20045;-72
2022/03/12 02:50:54;;;;;;;11.75;6.32;;;7.30;81.40;;;;;;5005241;28;20046;-72
2022/03/12 02:53:20;;;;;;;12.25;6.78;;;7.30;81.70;;;;;;5003327;28;20050;-71
2022/03/12 02:55:46;;;;;;;13.55;7.13;;;7.30;81.20;;;;;;4990983;28;20179;-72
2022/03/12 02:58:16;;;;;;;11.68;6.30;;;7.40;81.20;;;;;;4995467;28;20128;-71
2022/03/12 03:00:42;;;;;;;10.95;6.03;;;7.40;81.40;;;;;;4987575;28;20487;-72
2022/03/12 03:03:08;;;;;;;10.05;6.78;;;7.40;81.50;;;;;;4994538;28;20045;-72
2022/03/12 03:05:45;;;;;;;13.43;6.93;;;7.40;81.20;;;;;;5003260;28;20092;-72
2022/03/12 03:08:17;;;;;;;10.18;6.25;;;7.40;81.10;;;;;;5008916;28;20056;-72
2022/03/12 03:10:45;;;;;;;11.55;6.10;;;7.50;80.90;;;;;;4997983;28;20080;-72
2022/03/12 03:13:17;;;;;;;9.82;5.95;;;7.50;81.10;;;;;;4995294;28;20405;-73
2022/03/12 03:16:22;;;;;;;13.50;7.32;;;7.50;81.10;;;;;;4997198;28;20046;-73
2022/03/12 03:18:53;;;;;;;15.30;6.13;;;7.60;81.30;;;;;;4987204;28;20042;-71
2022/03/12 03:21:24;;;;;;;11.85;6.28;;;7.60;81.40;;;;;;4989046;28;20048;-72
2022/03/12 03:23:51;;;;;;;11.60;6.18;;;7.60;81.80;;;;;;4990223;28;20042;-72
2022/03/12 03:26:38;;;;;;;10.20;5.78;;;7.70;82.60;;;;;;4993604;28;20107;-72
2022/03/12 03:29:07;;;;;;;9.48;6.88;;;7.70;83.30;;;;;;4992640;28;20057;-72
2022/03/12 03:31:34;;;;;;;10.27;6.32;;;7.70;83.30;;;;;;5000920;28;20057;-71
2022/03/12 03:34:00;;;;;;;12.65;6.25;;;7.70;83.20;;;;;;4987793;28;20037;-72
2022/03/12 03:36:25;;;;;;;13.80;6.00;;;7.70;82.60;;;;;;4990828;28;20449;-71
2022/03/12 03:38:51;;;;;;;11.85;6.45;;;7.70;82.70;;;;;;4990493;28;20140;-71
2022/03/12 03:41:17;;;;;;;10.82;6.68;;;7.70;82.90;;;;;;4990201;28;20045;-71
2022/03/12 03:43:48;;;;;;;12.20;5.90;;;7.70;82.50;;;;;;4990107;28;20082;-71
2022/03/12 03:46:20;;;;;;;9.27;5.70;;;7.70;82.30;;;;;;4989313;28;20050;-71
2022/03/12 03:48:47;;;;;;;10.50;6.63;;;7.70;82.50;;;;;;4996863;28;20422;-72
2022/03/12 03:51:13;;;;;;;11.60;6.00;;;7.70;83.40;;;;;;5008142;28;20048;-71
2022/03/12 03:53:38;;;;;;;11.80;6.50;;;7.70;83.40;;;;;;4997411;28;20073;-72
2022/03/12 03:56:05;;;;;;;12.77;6.45;;;7.70;84.50;;;;;;4993230;28;20115;-72
2022/03/12 03:58:32;;;;;;;15.55;6.57;;;7.70;85.00;;;;;;4990732;28;20050;-71
2022/03/12 04:01:14;;;;;;;13.27;6.68;;;7.70;85.20;;;;;;4992848;28;20049;-72
2022/03/12 04:03:44;;;;;;;11.48;6.78;;;7.60;86.60;;;;;;5006395;28;20145;-72
2022/03/12 04:06:10;;;;;;;16.45;7.20;;;7.60;88.20;;;;;;5009535;28;20082;-72
2022/03/12 04:08:36;;;;;;;12.57;7.20;;;7.60;89.20;;;;;;4996917;28;20041;-72
2022/03/12 04:11:06;;;;;;;13.95;7.85;;;7.50;90.10;;;;;;5005372;28;20054;-71
2022/03/12 04:13:33;;;;;;;11.13;7.20;;;7.50;90.60;;;;;;4995775;28;20124;-72
2022/03/12 04:16:00;;;;;;;10.32;6.70;;;7.40;91.10;;;;;;5004065;28;20030;-72
2022/03/12 04:18:26;;;;;;;13.48;7.18;;;7.40;92.10;;;;;;4996598;28;20315;-72
2022/03/12 04:20:52;;;;;;;13.13;6.75;;;7.30;93.10;;;;;;4989976;28;20049;-71
2022/03/12 04:23:21;;;;;;;11.90;7.30;;;7.20;92.90;;;;;;4995423;28;20128;-71
2022/03/12 04:25:52;;;;;;;14.60;7.93;;;7.20;93.50;;;;;;4990234;28;20042;-71
2022/03/12 04:28:22;;;;;;;13.50;8.38;;;7.20;94.20;;;;;;5012576;28;20047;-71
2022/03/12 04:30:49;;;;;;;12.55;7.82;;;7.10;94.70;;;;;;4994733;28;20054;-72
2022/03/12 04:33:15;;;;;;;12.95;7.85;;;7.10;96.20;;;;;;4997244;28;20041;-72
2022/03/12 04:35:42;;;;;;;12.77;7.68;;;7.00;96.20;;;;;;5005098;28;20086;-72
2022/03/12 04:38:12;;;;;;;13.90;8.30;;;7.00;96.40;;;;;;4992097;28;20046;-73
2022/03/12 04:40:43;;;;;;;17.38;8.43;;;7.00;97.20;;;;;;4989990;28;20107;-73
2022/03/12 04:43:11;;;;;;;19.73;8.73;;;6.90;97.90;;;;;;4989800;28;20137;-73
2022/03/12 04:45:38;;;;;;;13.90;8.38;;;6.90;98.40;;;;;;4993701;28;20402;-73
2022/03/12 04:48:04;;;;;;;14.15;8.90;;;6.80;99.60;;;;;;4998826;28;20596;-72
2022/03/12 04:50:30;;;;;;;12.57;8.57;;;6.80;99.90;;;;;;5008974;28;20042;-73
2022/03/12 04:52:58;;;;;;;13.48;8.57;;;6.80;99.90;;;;;;5012124;28;20470;-73
2022/03/12 04:55:26;;;;;;;16.17;9.30;;;6.80;99.90;;;;;;5007965;28;20085;-73
2022/03/12 04:57:53;;;;;;;15.85;8.80;;;6.70;99.90;;;;;;5009695;28;20033;-73
2022/03/12 05:00:29;;;;;;;16.60;9.82;;;6.70;99.90;;;;;;5008892;28;20391;-72
2022/03/12 05:03:08;;;;;;;13.65;8.10;;;6.70;99.90;;;;;;4987282;28;20509;-73
2022/03/12 05:05:39;;;;;;;17.17;9.00;;;6.70;99.90;;;;;;4992880;28;20049;-72
2022/03/12 05:08:16;;;;;;;14.50;9.27;;;6.60;99.90;;;;;;4992624;28;20037;-73
2022/03/12 05:10:50;;;;;;;15.70;9.30;;;6.60;99.90;;;;;;4988511;28;20283;-73
2022/03/12 05:13:22;;;;;;;16.38;9.20;;;6.60;99.90;;;;;;4995253;28;20490;-72
2022/03/12 05:15:53;;;;;;;13.15;8.30;;;6.50;99.90;;;;;;4989409;28;20057;-73
2022/03/12 05:18:21;;;;;;;15.43;9.27;;;6.50;99.90;;;;;;5004318;28;20044;-72
2022/03/12 05:20:47;;;;;;;13.93;9.02;;;6.50;99.90;;;;;;4994292;28;20038;-73
2022/03/12 05:23:14;;;;;;;16.92;9.40;;;6.40;99.90;;;;;;4993104;28;20045;-72
2022/03/12 05:25:44;;;;;;;15.57;9.63;;;6.40;99.90;;;;;;4988155;28;20071;-72
2022/03/12 05:28:15;;;;;;;13.73;8.63;;;6.40;99.90;;;;;;5005837;28;20033;-73
2022/03/12 05:30:44;;;;;;;15.68;9.70;;;6.40;99.90;;;;;;4990883;28;20799;-72
2022/03/12 05:33:10;;;;;;;15.30;8.77;;;6.30;99.90;;;;;;4998253;28;20034;-73
2022/03/12 05:35:39;;;;;;;13.63;8.93;;;6.30;99.90;;;;;;5006830;28;20041;-73
2022/03/12 05:38:06;;;;;;;16.25;8.85;;;6.30;99.90;;;;;;5011842;28;20049;-73
2022/03/12 05:40:36;;;;;;;13.98;8.80;;;6.30;99.90;;;;;;5005982;28;20172;-70
2022/03/12 05:43:02;;;;;;;12.95;8.65;;;6.30;99.90;;;;;;4992411;28;20539;-72
2022/03/12 05:45:27;;;;;;;14.32;8.38;;;6.30;99.90;;;;;;5004374;28;20168;-72
2022/03/12 05:47:53;;;;;;;13.50;8.43;;;6.30;99.90;;;;;;5007663;28;20132;-73
2022/03/12 05:50:19;;;;;;;14.10;9.07;;;6.20;99.90;;;;;;4989043;28;20085;-72
2022/03/12 05:52:50;;;;;;;16.50;8.60;;;6.20;99.90;;;;;;5010635;28;20057;-72
2022/03/12 05:55:23;;;;;;;14.52;8.38;;;6.20;99.90;;;;;;5004350;28;20049;-71
2022/03/12 05:57:49;;;;;;;11.38;7.40;;;6.20;99.90;;;;;;4993097;28;20803;-72
2022/03/12 06:00:16;;;;;;;15.15;9.30;;;6.20;99.90;;;;;;4990837;28;20505;-71
2022/03/12 06:02:51;;;;;;;13.73;8.32;;;6.20;99.90;;;;;;5008928;28;20038;-71
2022/03/12 06:05:23;;;;;;;14.77;8.68;;;6.10;99.90;;;;;;5004936;28;20046;-71
2022/03/12 06:07:51;;;;;;;12.95;7.90;;;6.10;99.90;;;;;;5001302;28;20285;-71
2022/03/12 06:10:21;;;;;;;12.63;8.02;;;6.00;99.90;;;;;;4992264;28;20041;-71
2022/03/12 06:12:47;;;;;;;14.93;9.60;;;5.90;99.90;;;;;;5009927;28;20112;-71
2022/03/12 06:15:15;;;;;;;15.55;8.32;;;5.90;99.90;;;;;;4986019;28;20042;-71
2022/03/12 06:17:41;;;;;;;12.68;8.77;;;5.80;99.90;;;;;;4994621;28;20037;-71
2022/03/12 06:20:08;;;;;;;15.18;7.85;;;5.80;99.90;;;;;;4988197;28;20412;-71
2022/03/12 06:22:34;;;;;;;15.02;9.13;;;5.70;99.90;;;;;;5006616;28;20449;-71
2022/03/12 06:25:00;;;;;;;15.23;8.15;;;5.70;99.90;;;;;;4993598;28;20100;-71
2022/03/12 06:27:26;;;;;;;14.52;9.15;;;5.60;99.90;;;;;;4995493;28;20104;-71
2022/03/12 06:29:52;;;;;;;11.90;8.18;;;5.60;99.90;;;;;;5009270;28;20045;-71
2022/03/12 06:32:18;;;;;;;13.23;8.10;;;5.60;99.90;;;;;;4990889;28;20046;-70
2022/03/12 06:34:44;;;;;;;18.00;8.77;;;5.60;99.90;;;;;;4997673;28;20371;-70
2022/03/12 06:37:12;;;;;;;14.07;8.93;;;5.50;99.90;;;;;;4996125;28;20052;-71
2022/03/12 06:39:37;;;;;;;15.95;8.70;;;5.60;99.90;;;;;;4996666;28;20100;-70
2022/03/12 06:42:03;;;;;;;16.33;9.38;;;5.60;99.90;;;;;;4996435;28;20408;-70
2022/03/12 06:44:32;;;;;;;16.75;9.27;;;5.50;99.90;;;;;;4994925;28;20505;-72
2022/03/12 06:47:07;;;;;;;15.23;8.40;;;5.60;99.90;;;;;;4995246;28;20050;-72
2022/03/12 06:49:33;;;;;;;14.88;8.32;;;5.60;99.90;;;;;;4995574;28;20064;-71
2022/03/12 06:51:59;;;;;;;13.73;7.82;;;5.60;99.90;;;;;;5011749;28;20065;-71
2022/03/12 06:54:25;;;;;;;17.50;9.13;;;5.60;99.90;;;;;;5012173;28;20057;-70
2022/03/12 06:56:51;;;;;;;14.98;8.57;;;5.60;99.90;;;;;;5007314;28;20379;-72
2022/03/12 06:59:17;;;;;;;14.20;9.18;;;5.70;99.90;;;;;;5000799;28;20063;-73
2022/03/12 07:01:59;;;;;;;16.27;9.20;;;5.80;99.90;;;;;;5003360;28;20054;-71
2022/03/12 07:04:25;;;;;;;13.05;8.70;;;5.90;99.90;;;;;;5000351;28;20048;-72
2022/03/12 07:06:51;;;;;;;14.48;9.05;;;6.00;99.90;;;;;;4985876;28;20041;-73
2022/03/12 07:09:17;;;;;;;13.27;8.55;;;6.10;99.90;;;;;;5012453;28;20509;-72
2022/03/12 07:11:46;;;;;;;14.30;8.65;;;6.20;99.90;;;;;;4990729;28;20072;-72
2022/03/12 07:14:12;;;;;;;13.77;8.18;;;6.40;99.90;;;;;;4982502;28;20045;-72
2022/03/12 07:16:38;;;;;;;15.02;8.93;;;6.40;99.90;;;;;;5012925;28;20049;-71
2022/03/12 07:19:04;;;;;;;12.50;8.75;;;6.50;99.90;;;;;;4998060;28;20055;-72
2022/03/12 07:21:30;;;;;;;18.95;8.57;;;6.60;99.90;;;;;;5003109;28;20042;-70
2022/03/12 07:23:56;;;;;;;13.25;8.32;;;6.70;99.90;;;;;;4992544;28;20061;-71
2022/03/12 07:26:22;;;;;;;14.73;8.90;;;6.80;99.90;;;;;;5002486;28;20412;-71
2022/03/12 07:28:49;;;;;;;15.70;9.43;;;7.00;99.90;;;;;;5008866;28;20053;-70
2022/03/12 07:31:16;;;;;;;15.98;9.38;;;7.20;99.90;;;;;;4987863;28;20386;-71
2022/03/12 07:33:42;;;;;;;14.43;9.30;;;7.30;99.90;;;;;;4995547;28;20092;-71
2022/03/12 07:36:08;;;;;;;14.20;8.77;;;7.40;99.90;;;;;;5004730;28;20497;-72
2022/03/12 07:38:34;;;;;;;20.08;9.68;;;7.50;99.90;;;;;;4981705;28;20076;-72
2022/03/12 07:40:59;;;;;;;15.18;8.70;;;7.60;99.90;;;;;;4985345;28;20041;-72
2022/03/12 07:43:25;;;;;;;14.80;9.20;;;7.70;99.90;;;;;;4989143;28;20112;-71
2022/03/12 07:45:51;;;;;;;17.02;9.70;;;7.90;99.90;;;;;;4998615;28;20325;-71
2022/03/12 07:48:17;;;;;;;19.10;9.38;;;8.00;99.90;;;;;;5007791;28;20061;-71
2022/03/12 07:50:44;;;;;;;14.40;9.50;;;8.10;99.90;;;;;;4987036;28;20050;-71
2022/03/12 07:53:11;;;;;;;23.65;9.98;;;8.20;99.90;;;;;;4986151;28;20466;-71
2022/03/12 07:55:37;;;;;;;18.65;11.13;;;8.30;99.90;;;;;;5002948;28;20045;-70
2022/03/12 07:58:03;;;;;;;15.00;9.75;;;8.50;99.90;;;;;;4989450;28;20421;-71
2022/03/12 08:00:30;;;;;;;17.42;10.43;;;8.60;99.90;;;;;;4974578;28;20743;-72
2022/03/12 08:02:56;;;;;;;18.05;9.23;;;8.70;99.90;;;;;;4967254;28;20064;-74
2022/03/12 08:05:24;;;;;;;16.75;9.50;;;8.90;99.90;;;;;;4987924;28;20050;-72
2022/03/12 08:07:54;;;;;;;22.33;10.20;;;9.00;99.90;;;;;;5002839;28;20068;-73
2022/03/12 08:10:25;;;;;;;16.45;7.95;;;9.20;99.90;;;;;;4986827;28;20037;-73
2022/03/12 08:12:50;;;;;;;16.45;9.10;;;9.30;99.90;;;;;;4991803;28;20042;-72
2022/03/12 08:15:19;;;;;;;16.67;9.05;;;9.50;99.90;;;;;;4987089;28;20386;-73
2022/03/12 08:17:46;;;;;;;16.38;9.23;;;9.60;99.90;;;;;;5007727;28;20046;-71
2022/03/12 08:20:12;;;;;;;14.23;9.00;;;9.60;99.90;;;;;;5011543;28;20144;-71
2022/03/12 08:22:41;;;;;;;15.43;9.30;;;9.70;99.90;;;;;;4990805;28;20053;-71
2022/03/12 08:25:09;;;;;;;19.23;11.18;;;9.70;99.90;;;;;;4988424;28;20486;-72
2022/03/12 08:27:37;;;;;;;17.00;10.70;;;9.70;99.90;;;;;;5006584;28;20279;-70
2022/03/12 08:30:08;;;;;;;14.00;10.00;;;9.70;99.90;;;;;;4999853;28;20536;-71
2022/03/12 08:32:36;;;;;;;17.60;9.85;;;9.70;99.90;;;;;;4985152;28;20084;-71
2022/03/12 08:35:07;;;;;;;15.50;9.00;;;9.80;99.90;;;;;;5005775;28;20058;-72
2022/03/12 08:37:34;;;;;;;13.88;8.95;;;9.80;99.90;;;;;;4986629;28;20099;-70
2022/03/12 08:40:02;;;;;;;16.30;9.32;;;9.90;99.90;;;;;;5008807;28;20397;-70
2022/03/12 08:42:28;;;;;;;16.33;9.20;;;9.90;99.90;;;;;;4994746;28;20064;-74
2022/03/12 08:44:54;;;;;;;20.40;10.27;;;10.00;99.90;;;;;;5007873;28;20636;-72
2022/03/12 08:47:19;;;;;;;17.77;10.30;;;10.10;99.90;;;;;;4986428;28;20092;-74
2022/03/12 08:49:48;;;;;;;15.52;10.18;;;10.20;99.90;;;;;;5005150;28;20571;-72
2022/03/12 08:52:14;;;;;;;15.25;10.07;;;10.20;99.90;;;;;;4988028;28;20133;-76
2022/03/12 08:54:39;;;;;;;16.25;10.18;;;10.30;99.90;;;;;;4982326;28;20420;-74
2022/03/12 08:57:05;;;;;;;17.27;10.93;;;10.30;99.90;;;;;;4998359;28;20064;-72
2022/03/12 08:59:31;;;;;;;15.50;10.50;;;10.30;99.90;;;;;;4989713;28;20117;-72
2022/03/12 09:01:57;;;;;;;17.67;9.35;;;10.40;99.90;;;;;;5004693;28;20050;-70
2022/03/12 09:04:23;;;;;;;18.45;11.13;;;10.40;99.90;;;;;;4990979;28;20065;-71
2022/03/12 09:06:49;;;;;;;14.93;10.73;;;10.40;99.90;;;;;;4989358;28;20065;-71
2022/03/12 09:09:15;;;;;;;16.10;10.68;;;10.50;99.90;;;;;;4991577;28;20056;-71
2022/03/12 09:11:41;;;;;;;19.88;11.65;;;10.50;99.90;;;;;;4996366;28;20397;-71
2022/03/12 09:14:07;;;;;;;22.60;11.13;;;10.60;99.90;;;;;;4993742;28;20052;-71
2022/03/12 09:16:36;;;;;;;16.05;11.07;;;10.60;99.90;;;;;;4989008;28;20054;-72
2022/03/12 09:19:02;;;;;;;22.10;11.65;;;10.70;99.90;;;;;;4995870;28;20041;-71
2022/03/12 09:21:28;;;;;;;13.73;10.43;;;10.80;99.90;;;;;;5003146;28;20053;-72
2022/03/12 09:23:54;;;;;;;15.20;9.70;;;10.80;99.90;;;;;;4987380;28;20041;-72
2022/03/12 09:26:21;;;;;;;16.38;9.90;;;10.90;99.90;;;;;;5010085;28;20046;-72
2022/03/12 09:28:48;;;;;;;16.08;9.82;;;11.00;99.90;;;;;;4987429;28;20048;-71
2022/03/12 09:31:14;;;;;;;14.95;10.18;;;11.00;99.90;;;;;;4990324;28;20069;-71
2022/03/12 09:33:40;;;;;;;16.48;10.35;;;11.10;99.90;;;;;;5017846;28;20045;-73
2022/03/12 09:36:06;;;;;;;15.95;9.52;;;11.10;99.90;;;;;;4989342;28;20054;-72
2022/03/12 09:38:32;;;;;;;13.38;9.93;;;11.20;99.90;;;;;;5015111;28;20413;-72
2022/03/12 09:40:58;;;;;;;18.05;10.48;;;11.20;99.90;;;;;;4995043;28;20045;-72
2022/03/12 09:43:23;;;;;;;17.20;9.70;;;11.30;99.90;;;;;;4996647;28;20037;-72
2022/03/12 09:45:49;;;;;;;14.82;8.80;;;11.30;99.90;;;;;;5011126;28;20433;-72
2022/03/12 09:48:15;;;;;;;17.33;9.30;;;11.30;99.90;;;;;;4991055;28;20065;-73
2022/03/12 09:50:40;;;;;;;15.00;9.98;;;11.40;99.90;;;;;;4986468;28;20196;-72
2022/03/12 09:53:06;;;;;;;17.80;10.40;;;11.40;99.90;;;;;;5011586;28;20049;-72
2022/03/12 09:55:34;;;;;;;12.07;8.38;;;11.40;99.90;;;;;;4996734;28;20065;-72
2022/03/12 09:57:59;;;;;;;13.13;9.13;;;11.50;99.90;;;;;;4995923;28;20054;-72
2022/03/12 10:00:26;;;;;;;12.77;8.73;;;11.50;99.90;;;;;;5015388;28;20066;-72
2022/03/12 10:02:52;;;;;;;14.43;8.73;;;11.50;99.90;;;;;;5019852;28;20046;-72
2022/03/12 10:05:18;;;;;;;13.65;8.63;;;11.50;99.90;;;;;;5013844;28;20085;-73
2022/03/12 10:07:44;;;;;;;15.43;8.85;;;11.60;99.90;;;;;;5014304;28;20066;-73
2022/03/12 10:10:17;;;;;;;13.20;8.88;;;11.60;99.90;;;;;;5011053;28;20050;-73
2022/03/12 10:12:44;;;;;;;15.27;8.90;;;11.70;99.90;;;;;;5006650;28;20053;-73
2022/03/12 10:15:11;;;;;;;14.10;8.68;;;11.80;99.90;;;;;;4995409;28;20033;-73
2022/03/12 10:17:37;;;;;;;11.82;8.55;;;11.80;99.90;;;;;;4989200;28;20076;-74
2022/03/12 10:20:03;;;;;;;15.00;9.35;;;11.90;99.90;;;;;;4987809;28;20076;-72
2022/03/12 10:22:30;;;;;;;14.80;7.97;;;12.00;99.90;;;;;;5006429;28;20038;-69
2022/03/12 10:24:55;;;;;;;12.75;7.90;;;12.10;99.90;;;;;;5006787;28;20049;-70
2022/03/12 10:27:21;;;;;;;14.60;7.43;;;12.20;99.90;;;;;;4990225;28;20400;-69
2022/03/12 10:29:47;;;;;;;13.88;8.23;;;12.30;99.90;;;;;;5006622;28;20129;-69
2022/03/12 10:32:24;;;;;;;12.63;7.60;;;12.40;99.90;;;;;;4988310;28;20061;-69
2022/03/12 10:34:52;;;;;;;11.32;7.32;;;12.40;99.90;;;;;;5006685;28;20042;-69
2022/03/12 10:37:24;;;;;;;12.45;6.32;;;12.50;99.90;;;;;;5009815;28;20558;-68
2022/03/12 10:40:18;;;;;;;11.68;6.47;;;12.60;99.90;;;;;;4988885;28;20045;-68
2022/03/12 10:42:57;;;;;;;11.00;6.97;;;12.60;99.90;;;;;;5001373;28;20050;-68
2022/03/12 10:45:28;;;;;;;13.38;7.15;;;12.60;99.90;;;;;;5003488;28;20041;-70
2022/03/12 10:47:55;;;;;;;14.02;6.63;;;12.70;99.90;;;;;;5005795;28;20815;-70
2022/03/12 10:50:27;;;;;;;9.98;6.40;;;12.80;99.90;;;;;;4990172;28;20091;-69
2022/03/12 10:52:55;;;;;;;9.07;6.00;;;12.90;99.90;;;;;;4992567;28;20041;-69
2022/03/12 10:55:33;;;;;;;12.50;6.50;;;13.00;99.90;;;;;;5008092;28;20154;-69
2022/03/12 10:58:12;;;;;;;10.70;6.57;;;13.10;99.90;;;;;;5006150;28;20041;-70
2022/03/12 11:00:49;;;;;;;8.20;5.18;;;13.30;99.90;;;;;;4989767;28;20459;-70
2022/03/12 11:03:21;;;;;;;11.57;6.30;;;13.30;99.90;;;;;;5005662;28;20038;-71
2022/03/12 11:05:49;;;;;;;11.13;6.53;;;13.30;99.90;;;;;;4989458;28;20711;-70
2022/03/12 11:08:24;;;;;;;11.18;6.00;;;13.40;99.90;;;;;;4985240;28;20050;-70
2022/03/12 11:11:14;;;;;;;7.47;4.80;;;13.50;99.90;;;;;;4974060;28;20037;-70
2022/03/12 11:13:48;;;;;;;11.13;4.97;;;13.50;99.90;;;;;;5003727;28;20129;-67
2022/03/12 11:16:15;;;;;;;10.90;4.63;;;13.70;99.90;;;;;;5008733;28;20124;-70
2022/03/12 11:18:51;;;;;;;10.55;5.03;;;13.70;99.90;;;;;;4988388;28;20041;-69
2022/03/12 11:21:42;;;;;;;8.48;4.35;;;13.70;99.90;;;;;;4987884;28;20046;-71
2022/03/12 11:24:25;;;;;;;10.95;4.93;;;13.80;99.90;;;;;;4984763;28;20706;-70
2022/03/12 11:26:56;;;;;;;8.40;4.35;;;13.80;99.90;;;;;;4990610;28;20099;-71
2022/03/12 11:29:27;;;;;;;12.55;4.22;;;13.70;99.90;;;;;;4991238;28;20081;-71
2022/03/12 11:32:01;;;;;;;10.30;4.00;;;13.70;99.90;;;;;;5016875;28;20042;-70
2022/03/12 11:34:34;;;;;;;8.88;4.60;;;13.70;99.90;;;;;;5006402;28;20049;-73
2022/03/12 11:37:02;;;;;;;;;;;13.70;99.90;;;;;;4990722;28;20470;-70
2022/03/12 11:39:33;;;;;;;9.55;3.70;;;13.70;99.90;;;;;;4987625;28;19932;-70
2022/03/12 11:42:01;;;;;;;7.50;4.43;;;13.70;99.90;;;;;;4988079;28;20061;-70
2022/03/12 11:44:29;;;;;;;9.27;4.30;;;13.80;99.90;;;;;;4988100;28;20054;-70
2022/03/12 11:46:56;;;;;;;9.05;4.72;;;13.80;99.90;;;;;;4992070;28;20033;-70
2022/03/12 11:49:23;;;;;;;11.05;5.13;;;13.80;99.90;;;;;;5004339;28;20050;-69
2022/03/12 11:51:48;;;;;;;10.90;4.97;;;13.80;99.90;;;;;;4988864;28;20345;-70
2022/03/12 11:54:14;;;;;;;7.85;4.47;;;13.70;99.90;;;;;;5001968;28;20393;-70
2022/03/12 11:56:40;;;;;;;9.35;4.45;;;13.80;99.90;;;;;;4993619;28;20042;-70
2022/03/12 11:59:09;;;;;;;10.13;4.35;;;13.80;99.90;;;;;;5009675;28;20442;-71
2022/03/12 12:01:36;;;;;;;9.15;4.53;;;13.80;99.90;;;;;;4988535;28;20077;-71
2022/03/12 12:04:02;;;;;;;9.52;4.97;;;13.80;99.90;;;;;;4988388;28;20433;-69
2022/03/12 12:06:28;;;;;;;8.52;5.20;;;13.90;99.90;;;;;;4988658;28;20156;-70
2022/03/12 12:08:54;;;;;;;9.93;5.40;;;13.90;99.90;;;;;;4991767;28;20554;-69
2022/03/12 12:11:20;;;;;;;8.75;5.22;;;14.00;99.90;;;;;;4980422;28;20050;-70
2022/03/12 12:13:45;;;;;;;7.32;4.65;;;14.00;99.90;;;;;;4984294;28;20493;-69
2022/03/12 12:16:11;;;;;;;8.13;4.60;;;14.00;99.90;;;;;;5002548;28;20521;-70
2022/03/12 12:18:37;;;;;;;11.52;5.35;;;14.00;99.90;;;;;;4989725;28;20042;-71
2022/03/12 12:21:03;;;;;;;9.70;5.00;;;14.10;99.90;;;;;;5004924;28;20365;-68
2022/03/12 12:23:29;;;;;;;7.95;4.38;;;14.20;99.90;;;;;;5003615;28;20428;-68
2022/03/12 12:26:09;;;;;;;9.85;4.28;;;14.30;99.90;;;;;;4984746;28;20049;-68
2022/03/12 12:28:52;;;;;;;8.20;5.07;;;14.30;99.90;;;;;;4992008;28;20046;-69
2022/03/12 12:31:26;;;;;;;10.52;5.57;;;14.40;99.90;;;;;;4992048;28;20092;-69
2022/03/12 12:33:55;;;;;;;9.10;4.60;;;14.40;99.90;;;;;;5006662;28;20050;-69
2022/03/12 12:36:21;;;;;;;14.40;5.30;;;14.50;99.90;;;;;;4987509;28;20044;-69
2022/03/12 12:39:05;;;;;;;12.38;5.50;;;14.60;99.90;;;;;;5009330;28;20037;-69
2022/03/12 12:41:51;;;;;;;7.72;5.10;;;14.70;99.90;;;;;;5009494;28;20150;-69
2022/03/12 12:44:32;;;;;;;8.90;5.53;;;14.70;99.90;;;;;;5006116;28;20041;-69
2022/03/12 12:46:58;;;;;;;8.40;5.10;;;14.60;99.90;;;;;;4978713;28;20038;-69
2022/03/12 12:49:36;;;;;;;10.07;5.30;;;14.60;99.90;;;;;;5007322;28;20583;-69
2022/03/12 12:52:03;;;;;;;8.90;5.68;;;14.60;99.90;;;;;;4988619;28;20058;-70